createdAt,value
2023-03-23T15:58:49.931Z,28.88
2023-03-23T16:01:31.431Z,29.06
2023-03-23T16:04:06.884Z,29.38
2023-03-23T16:06:35.297Z,28.60
2023-03-23T16:09:04.504Z,28.94
2023-03-23T16:11:33.555Z,29.02
2023-03-23T16:14:02.035Z,29.42
2023-03-23T16:16:33.992Z,29.65
2023-03-23T16:19:01.466Z,29.45
2023-03-23T16:21:29.043Z,29.72
2023-03-23T16:23:56.816Z,29.72
2023-03-23T16:26:24.387Z,29.72
2023-03-23T16:28:55.300Z,29.71
2023-03-23T16:31:27.745Z,29.72
2023-03-23T16:33:55.586Z,30.50
2023-03-23T16:36:22.968Z,30.02
2023-03-23T16:38:52.972Z,30.09
2023-03-23T16:41:21.686Z,30.58
2023-03-23T16:43:49.510Z,30.73
2023-03-23T16:46:17.297Z,30.74
2023-03-23T16:48:44.743Z,31.91
2023-03-23T16:51:12.398Z,31.77
2023-03-23T16:53:40.197Z,32.15
2023-03-23T16:56:07.756Z,31.63
2023-03-23T16:58:35.694Z,31.51
2023-03-23T17:01:03.911Z,31.45
2023-03-23T17:03:31.599Z,31.61
2023-03-23T17:06:00.412Z,31.89
2023-03-23T17:08:28.747Z,31.80
2023-03-23T17:10:56.192Z,32.07
2023-03-23T17:13:25.418Z,32.22
2023-03-23T17:15:55.463Z,32.69
2023-03-23T17:18:24.492Z,33.00
2023-03-23T17:20:55.383Z,33.20
2023-03-23T17:23:23.130Z,33.52
2023-03-23T17:25:51.088Z,33.77
2023-03-23T17:28:20.438Z,33.90
2023-03-23T17:30:48.916Z,34.21
2023-03-23T17:33:16.292Z,35.60
2023-03-23T17:35:46.119Z,35.24
2023-03-23T17:38:13.977Z,35.01
2023-03-23T17:40:41.471Z,35.25
2023-03-23T17:43:09.142Z,35.48
2023-03-23T17:45:37.034Z,35.39
2023-03-23T17:48:07.686Z,35.54
2023-03-23T17:50:36.162Z,35.50
2023-03-23T17:53:04.533Z,36.35
2023-03-23T17:55:32.178Z,36.59
2023-03-23T17:57:59.695Z,35.98
2023-03-23T18:00:27.361Z,35.93
2023-03-23T18:02:56.409Z,35.84
2023-03-23T18:05:24.626Z,35.99
2023-03-23T18:07:52.023Z,35.91
2023-03-23T18:10:20.213Z,35.90
2023-03-23T18:12:50.151Z,36.00
2023-03-23T18:15:18.073Z,35.74
2023-03-23T18:17:48.170Z,35.85
2023-03-23T18:20:15.850Z,35.63
2023-03-23T18:22:43.413Z,35.80
2023-03-23T18:25:11.149Z,35.67
2023-03-23T18:27:38.719Z,35.66
2023-03-23T18:30:07.534Z,35.63
2023-03-23T18:32:36.601Z,35.57
2023-03-23T18:35:05.945Z,35.57
2023-03-23T18:37:35.332Z,35.95
2023-03-23T18:40:05.488Z,35.63
2023-03-23T18:42:33.053Z,35.77
2023-03-23T18:45:04.428Z,35.91
2023-03-23T18:47:32.293Z,36.03
2023-03-23T18:50:01.514Z,36.04
2023-03-23T18:52:31.105Z,36.06
2023-03-23T18:54:59.102Z,36.30
2023-03-23T18:57:27.144Z,36.21
2023-03-23T18:59:54.851Z,36.12
2023-03-23T19:02:23.761Z,35.89
2023-03-23T19:04:51.658Z,36.05
2023-03-23T19:07:19.838Z,35.89
2023-03-23T19:09:48.100Z,35.77
2023-03-23T19:12:16.067Z,35.77
2023-03-23T19:14:43.915Z,35.89
2023-03-23T19:17:11.733Z,35.84
2023-03-23T19:19:43.055Z,35.74
2023-03-23T19:22:11.854Z,35.72
2023-03-23T19:24:39.481Z,35.58
2023-03-23T19:27:08.054Z,35.88
2023-03-23T19:29:35.834Z,36.15
2023-03-23T19:32:03.621Z,36.23
2023-03-23T19:34:31.830Z,35.89
2023-03-23T19:37:05.317Z,35.98
2023-03-23T19:39:34.481Z,35.94
2023-03-23T19:42:02.029Z,35.68
2023-03-23T19:44:29.509Z,35.84
2023-03-23T19:46:57.695Z,36.09
2023-03-23T19:49:25.416Z,36.26
2023-03-23T19:52:07.798Z,36.19
2023-03-23T19:54:37.002Z,36.04
2023-03-23T19:57:04.448Z,36.06
2023-03-23T19:59:31.898Z,36.13
2023-03-23T20:01:59.586Z,36.29
2023-03-23T20:04:27.314Z,36.19
2023-03-23T20:06:56.364Z,36.34
2023-03-23T20:09:25.292Z,36.66
2023-03-23T20:11:53.799Z,36.87
2023-03-23T20:14:21.406Z,37.20
2023-03-23T20:16:48.769Z,37.47
2023-03-23T20:19:16.565Z,37.78
2023-03-23T20:21:44.938Z,38.02
2023-03-23T20:24:12.601Z,38.46
2023-03-23T20:26:43.165Z,38.42
2023-03-23T20:29:10.968Z,38.84
2023-03-23T20:31:41.018Z,38.35
2023-03-23T20:34:17.160Z,38.47
2023-03-23T20:36:45.817Z,38.13
2023-03-23T20:39:18.646Z,38.17
2023-03-23T20:41:47.630Z,38.02
2023-03-23T20:44:15.736Z,37.77
2023-03-23T20:46:48.097Z,37.98
2023-03-23T20:49:17.154Z,37.92
2023-03-23T20:51:44.987Z,37.68
2023-03-23T20:54:15.608Z,37.67
2023-03-23T20:56:44.644Z,37.75
2023-03-23T20:59:13.077Z,37.74
2023-03-23T21:01:40.648Z,37.62
2023-03-23T21:04:15.067Z,37.86
2023-03-23T21:06:43.960Z,37.89
2023-03-23T21:09:12.802Z,38.04
2023-03-23T21:11:40.623Z,38.29
2023-03-23T21:14:08.451Z,38.55
2023-03-23T21:16:36.293Z,38.68
2023-03-23T21:19:05.369Z,38.95
2023-03-23T21:21:34.165Z,39.25
2023-03-23T21:24:02.831Z,39.15
2023-03-23T21:26:30.760Z,39.03
2023-03-23T21:29:01.225Z,39.16
2023-03-23T21:31:30.469Z,39.14
2023-03-23T21:33:58.858Z,39.48
2023-03-23T21:36:27.350Z,40.09
2023-03-23T21:38:56.125Z,40.02
2023-03-23T21:41:23.920Z,39.86
2023-03-23T21:43:51.606Z,40.19
2023-03-23T21:46:19.665Z,40.58
2023-03-23T21:48:50.985Z,40.41
2023-03-23T21:51:24.277Z,40.81
2023-03-23T21:53:54.189Z,41.08
2023-03-23T21:56:24.198Z,41.29
2023-03-23T21:58:52.236Z,41.91
2023-03-23T22:01:20.392Z,41.94
2023-03-23T22:03:48.179Z,41.94
2023-03-23T22:06:20.888Z,42.07
2023-03-23T22:08:48.680Z,42.52
2023-03-23T22:11:31.244Z,42.65
2023-03-23T22:14:03.167Z,42.84
2023-03-23T22:16:31.468Z,43.00
2023-03-23T22:19:00.332Z,43.17
2023-03-23T22:21:29.252Z,43.49
2023-03-23T22:23:59.149Z,43.46
2023-03-23T22:26:27.838Z,43.77
2023-03-23T22:28:55.866Z,43.76
2023-03-23T22:31:26.409Z,43.93
2023-03-23T22:33:55.977Z,43.98
2023-03-23T22:36:25.829Z,44.22
2023-03-23T22:38:55.063Z,44.29
2023-03-23T22:41:28.025Z,44.25
2023-03-23T22:43:55.882Z,44.48
2023-03-23T22:46:25.017Z,44.79
2023-03-23T22:48:52.558Z,44.89
2023-03-23T22:51:21.269Z,44.84
2023-03-23T22:53:49.856Z,45.18
2023-03-23T22:56:17.541Z,45.09
2023-03-23T22:58:45.536Z,45.41
2023-03-23T23:01:21.520Z,45.20
2023-03-23T23:03:49.545Z,45.30
2023-03-23T23:06:17.892Z,45.51
2023-03-23T23:08:45.871Z,45.73
2023-03-23T23:11:16.222Z,45.87
2023-03-23T23:13:44.558Z,46.00
2023-03-23T23:16:13.224Z,46.18
2023-03-23T23:18:41.326Z,46.27
2023-03-23T23:21:12.440Z,46.45
2023-03-23T23:23:40.251Z,46.52
2023-03-23T23:26:07.858Z,46.59
2023-03-23T23:28:36.281Z,46.65
2023-03-23T23:31:04.223Z,46.77
2023-03-23T23:33:32.436Z,46.75
2023-03-23T23:36:00.286Z,46.66
2023-03-23T23:38:27.789Z,46.88
2023-03-23T23:40:55.212Z,46.58
2023-03-23T23:43:23.011Z,46.99
2023-03-23T23:45:50.551Z,47.04
2023-03-23T23:48:18.348Z,47.08
2023-03-23T23:50:46.180Z,47.34
2023-03-23T23:53:13.754Z,47.45
2023-03-23T23:55:41.200Z,47.59
2023-03-23T23:58:08.991Z,47.80
